Cincinnati, Ohio
Traffic Map
Current Weather Conditions
Cincinnati, Ohio
Overcast
Overcast
-1°
Feels Like: -1°
Wind Chill: -1° Ceiling: 2600
Heat Index: -1° Visibility: 7mi
Dew Point: -3° Wind: 0mph
Humidity: 85% Direction: ° ()
Pressure: 30.32in Gusts: 0mph
Raw Report DataKLUK 210253Z 00000KT 7SM OVC026 M01/M03 A3032 RMK AO2 SLP271 T10061028 58000
Traffic Incident Summary
Active as of:
Severity:
Category:
InformationThere was an issue retrieving the traffic information for this location. Please try a different location or try again shortly.
Advertisements
Track Severe Weather on mobile